sensor_id;sensor_type;location;lat;lon;timestamp;P1;durP1;ratioP1;P2;durP2;ratioP2
77866;SDS011;67271;59.120;37.970;2023-07-13T00:05:20;11.52;;;4.32;;
77866;SDS011;67271;59.120;37.970;2023-07-13T00:07:48;8.63;;;3.63;;
77866;SDS011;67271;59.120;37.970;2023-07-13T00:10:14;12.13;;;4.10;;
77866;SDS011;67271;59.120;37.970;2023-07-13T00:12:41;7.90;;;3.63;;
77866;SDS011;67271;59.120;37.970;2023-07-13T00:15:10;6.07;;;3.25;;
77866;SDS011;67271;59.120;37.970;2023-07-13T00:17:51;8.23;;;3.63;;
77866;SDS011;67271;59.120;37.970;2023-07-13T00:20:20;8.18;;;3.40;;
77866;SDS011;67271;59.120;37.970;2023-07-13T00:22:47;5.85;;;2.55;;
77866;SDS011;67271;59.120;37.970;2023-07-13T00:25:15;4.90;;;2.85;;
77866;SDS011;67271;59.120;37.970;2023-07-13T00:27:42;3.72;;;2.47;;
77866;SDS011;67271;59.120;37.970;2023-07-13T00:30:09;6.38;;;3.08;;
77866;SDS011;67271;59.120;37.970;2023-07-13T00:32:35;4.90;;;2.08;;
77866;SDS011;67271;59.120;37.970;2023-07-13T00:35:02;4.28;;;2.28;;
77866;SDS011;67271;59.120;37.970;2023-07-13T00:37:30;4.07;;;2.30;;
77866;SDS011;67271;59.120;37.970;2023-07-13T00:39:58;2.78;;;2.00;;
77866;SDS011;67271;59.120;37.970;2023-07-13T00:42:24;5.40;;;2.10;;
77866;SDS011;67271;59.120;37.970;2023-07-13T00:47:46;5.10;;;1.90;;
77866;SDS011;67271;59.120;37.970;2023-07-13T00:50:12;3.67;;;2.03;;
77866;SDS011;67271;59.120;37.970;2023-07-13T00:52:43;3.92;;;1.77;;
77866;SDS011;67271;59.120;37.970;2023-07-13T00:55:14;3.63;;;1.70;;
77866;SDS011;67271;59.120;37.970;2023-07-13T00:57:41;4.88;;;2.17;;
77866;SDS011;67271;59.120;37.970;2023-07-13T01:00:08;4.15;;;1.80;;
77866;SDS011;67271;59.120;37.970;2023-07-13T01:02:36;5.47;;;1.80;;
77866;SDS011;67271;59.120;37.970;2023-07-13T01:05:10;3.65;;;1.80;;
77866;SDS011;67271;59.120;37.970;2023-07-13T01:07:39;4.40;;;1.98;;
77866;SDS011;67271;59.120;37.970;2023-07-13T01:10:07;7.88;;;1.90;;
77866;SDS011;67271;59.120;37.970;2023-07-13T01:12:34;2.08;;;1.23;;
77866;SDS011;67271;59.120;37.970;2023-07-13T01:15:00;2.55;;;1.80;;
77866;SDS011;67271;59.120;37.970;2023-07-13T01:17:29;3.00;;;1.52;;
77866;SDS011;67271;59.120;37.970;2023-07-13T01:19:55;5.78;;;2.30;;
77866;SDS011;67271;59.120;37.970;2023-07-13T01:22:22;5.10;;;2.67;;
77866;SDS011;67271;59.120;37.970;2023-07-13T01:24:52;3.60;;;2.17;;
77866;SDS011;67271;59.120;37.970;2023-07-13T01:27:22;4.60;;;2.30;;
77866;SDS011;67271;59.120;37.970;2023-07-13T01:29:50;9.05;;;2.97;;
77866;SDS011;67271;59.120;37.970;2023-07-13T01:32:21;6.82;;;2.97;;
77866;SDS011;67271;59.120;37.970;2023-07-13T01:34:50;11.15;;;5.30;;
77866;SDS011;67271;59.120;37.970;2023-07-13T01:37:21;16.48;;;6.07;;
77866;SDS011;67271;59.120;37.970;2023-07-13T01:39:47;22.42;;;8.52;;
77866;SDS011;67271;59.120;37.970;2023-07-13T01:42:13;33.47;;;11.45;;
77866;SDS011;67271;59.120;37.970;2023-07-13T01:44:40;30.73;;;12.10;;
77866;SDS011;67271;59.120;37.970;2023-07-13T01:47:06;43.88;;;16.02;;
77866;SDS011;67271;59.120;37.970;2023-07-13T01:49:33;38.63;;;16.27;;
77866;SDS011;67271;59.120;37.970;2023-07-13T01:51:59;34.65;;;12.30;;
77866;SDS011;67271;59.120;37.970;2023-07-13T01:54:25;40.30;;;15.25;;
77866;SDS011;67271;59.120;37.970;2023-07-13T01:57:00;47.33;;;18.75;;
77866;SDS011;67271;59.120;37.970;2023-07-13T01:59:26;57.15;;;21.77;;
77866;SDS011;67271;59.120;37.970;2023-07-13T02:01:52;52.22;;;25.20;;
77866;SDS011;67271;59.120;37.970;2023-07-13T02:04:18;49.17;;;20.17;;
77866;SDS011;67271;59.120;37.970;2023-07-13T02:06:43;60.17;;;24.52;;
77866;SDS011;67271;59.120;37.970;2023-07-13T02:09:09;59.53;;;21.98;;
77866;SDS011;67271;59.120;37.970;2023-07-13T02:11:35;54.92;;;20.92;;
77866;SDS011;67271;59.120;37.970;2023-07-13T02:14:01;60.30;;;23.65;;
77866;SDS011;67271;59.120;37.970;2023-07-13T02:16:28;68.43;;;25.88;;
77866;SDS011;67271;59.120;37.970;2023-07-13T02:18:55;69.53;;;28.23;;
77866;SDS011;67271;59.120;37.970;2023-07-13T02:21:22;61.47;;;27.52;;
77866;SDS011;67271;59.120;37.970;2023-07-13T02:23:51;70.80;;;26.42;;
77866;SDS011;67271;59.120;37.970;2023-07-13T02:26:17;60.55;;;25.23;;
77866;SDS011;67271;59.120;37.970;2023-07-13T02:28:44;67.13;;;25.75;;
77866;SDS011;67271;59.120;37.970;2023-07-13T02:31:13;44.35;;;20.35;;
77866;SDS011;67271;59.120;37.970;2023-07-13T02:33:41;61.80;;;25.13;;
77866;SDS011;67271;59.120;37.970;2023-07-13T02:36:07;55.78;;;24.83;;
77866;SDS011;67271;59.120;37.970;2023-07-13T02:38:34;58.83;;;24.95;;
77866;SDS011;67271;59.120;37.970;2023-07-13T02:41:02;57.75;;;22.98;;
77866;SDS011;67271;59.120;37.970;2023-07-13T02:43:29;50.45;;;24.25;;
77866;SDS011;67271;59.120;37.970;2023-07-13T02:45:55;61.05;;;23.50;;
77866;SDS011;67271;59.120;37.970;2023-07-13T02:48:21;47.88;;;20.05;;
77866;SDS011;67271;59.120;37.970;2023-07-13T02:50:47;38.55;;;19.15;;
77866;SDS011;67271;59.120;37.970;2023-07-13T02:53:14;31.30;;;13.60;;
77866;SDS011;67271;59.120;37.970;2023-07-13T02:55:42;29.02;;;10.93;;
77866;SDS011;67271;59.120;37.970;2023-07-13T02:58:13;45.90;;;17.85;;
77866;SDS011;67271;59.120;37.970;2023-07-13T03:00:45;42.13;;;17.83;;
77866;SDS011;67271;59.120;37.970;2023-07-13T03:03:13;50.67;;;20.25;;
77866;SDS011;67271;59.120;37.970;2023-07-13T03:05:41;37.03;;;16.35;;
77866;SDS011;67271;59.120;37.970;2023-07-13T03:08:09;34.50;;;16.00;;
77866;SDS011;67271;59.120;37.970;2023-07-13T03:10:35;36.78;;;19.38;;
77866;SDS011;67271;59.120;37.970;2023-07-13T03:13:02;46.28;;;20.33;;
77866;SDS011;67271;59.120;37.970;2023-07-13T03:15:28;46.63;;;21.38;;
77866;SDS011;67271;59.120;37.970;2023-07-13T03:17:56;38.65;;;17.17;;
77866;SDS011;67271;59.120;37.970;2023-07-13T03:20:31;43.15;;;18.30;;
77866;SDS011;67271;59.120;37.970;2023-07-13T03:22:58;29.77;;;12.30;;
77866;SDS011;67271;59.120;37.970;2023-07-13T03:25:26;27.77;;;10.38;;
77866;SDS011;67271;59.120;37.970;2023-07-13T03:27:52;20.08;;;8.85;;
77866;SDS011;67271;59.120;37.970;2023-07-13T03:30:18;16.80;;;8.05;;
77866;SDS011;67271;59.120;37.970;2023-07-13T03:32:44;16.48;;;6.93;;
77866;SDS011;67271;59.120;37.970;2023-07-13T03:35:10;10.65;;;6.22;;
77866;SDS011;67271;59.120;37.970;2023-07-13T03:37:36;12.82;;;6.57;;
77866;SDS011;67271;59.120;37.970;2023-07-13T03:40:12;21.02;;;6.72;;
77866;SDS011;67271;59.120;37.970;2023-07-13T03:42:38;20.05;;;6.57;;
77866;SDS011;67271;59.120;37.970;2023-07-13T03:45:04;11.00;;;6.68;;
77866;SDS011;67271;59.120;37.970;2023-07-13T03:47:32;22.13;;;8.57;;
77866;SDS011;67271;59.120;37.970;2023-07-13T03:50:01;19.38;;;6.53;;
77866;SDS011;67271;59.120;37.970;2023-07-13T03:52:27;11.82;;;6.65;;
77866;SDS011;67271;59.120;37.970;2023-07-13T03:54:53;15.75;;;6.28;;
77866;SDS011;67271;59.120;37.970;2023-07-13T03:57:20;14.35;;;6.10;;
77866;SDS011;67271;59.120;37.970;2023-07-13T03:59:46;17.08;;;5.65;;
77866;SDS011;67271;59.120;37.970;2023-07-13T04:02:12;13.82;;;4.80;;
77866;SDS011;67271;59.120;37.970;2023-07-13T04:04:38;25.85;;;6.75;;
77866;SDS011;67271;59.120;37.970;2023-07-13T04:07:06;12.05;;;6.38;;
77866;SDS011;67271;59.120;37.970;2023-07-13T04:09:33;18.55;;;6.70;;
77866;SDS011;67271;59.120;37.970;2023-07-13T04:12:00;17.52;;;6.05;;
77866;SDS011;67271;59.120;37.970;2023-07-13T04:14:27;14.73;;;6.50;;
77866;SDS011;67271;59.120;37.970;2023-07-13T04:16:53;15.35;;;4.93;;
77866;SDS011;67271;59.120;37.970;2023-07-13T04:19:20;17.45;;;5.57;;
77866;SDS011;67271;59.120;37.970;2023-07-13T04:21:46;13.27;;;4.88;;
77866;SDS011;67271;59.120;37.970;2023-07-13T04:24:12;9.35;;;4.93;;
77866;SDS011;67271;59.120;37.970;2023-07-13T04:26:38;9.63;;;5.40;;
77866;SDS011;67271;59.120;37.970;2023-07-13T04:29:05;17.30;;;6.60;;
77866;SDS011;67271;59.120;37.970;2023-07-13T04:31:32;17.42;;;8.00;;
77866;SDS011;67271;59.120;37.970;2023-07-13T04:33:59;12.13;;;7.25;;
77866;SDS011;67271;59.120;37.970;2023-07-13T04:36:25;16.13;;;7.13;;
77866;SDS011;67271;59.120;37.970;2023-07-13T04:38:54;11.52;;;5.38;;
77866;SDS011;67271;59.120;37.970;2023-07-13T04:41:20;16.55;;;6.45;;
77866;SDS011;67271;59.120;37.970;2023-07-13T04:43:47;16.83;;;7.88;;
77866;SDS011;67271;59.120;37.970;2023-07-13T04:46:14;16.95;;;6.70;;
77866;SDS011;67271;59.120;37.970;2023-07-13T04:48:42;19.77;;;10.48;;
77866;SDS011;67271;59.120;37.970;2023-07-13T04:51:08;18.38;;;11.55;;
77866;SDS011;67271;59.120;37.970;2023-07-13T04:53:35;29.85;;;13.90;;
77866;SDS011;67271;59.120;37.970;2023-07-13T04:56:02;23.98;;;13.48;;
77866;SDS011;67271;59.120;37.970;2023-07-13T04:58:28;24.00;;;12.65;;
77866;SDS011;67271;59.120;37.970;2023-07-13T05:01:04;24.30;;;13.52;;
77866;SDS011;67271;59.120;37.970;2023-07-13T05:03:31;28.70;;;14.80;;
77866;SDS011;67271;59.120;37.970;2023-07-13T05:05:59;34.55;;;17.83;;
77866;SDS011;67271;59.120;37.970;2023-07-13T05:08:26;38.03;;;18.65;;
77866;SDS011;67271;59.120;37.970;2023-07-13T05:10:52;35.55;;;16.65;;
77866;SDS011;67271;59.120;37.970;2023-07-13T05:13:18;32.92;;;17.30;;
77866;SDS011;67271;59.120;37.970;2023-07-13T05:15:45;36.63;;;16.25;;
77866;SDS011;67271;59.120;37.970;2023-07-13T05:18:11;33.80;;;17.73;;
77866;SDS011;67271;59.120;37.970;2023-07-13T05:20:37;40.08;;;20.08;;
77866;SDS011;67271;59.120;37.970;2023-07-13T05:23:02;43.50;;;21.23;;
77866;SDS011;67271;59.120;37.970;2023-07-13T05:25:29;44.72;;;21.40;;
77866;SDS011;67271;59.120;37.970;2023-07-13T05:27:55;50.08;;;25.20;;
77866;SDS011;67271;59.120;37.970;2023-07-13T05:30:21;59.65;;;26.08;;
77866;SDS011;67271;59.120;37.970;2023-07-13T05:32:47;57.83;;;27.55;;
77866;SDS011;67271;59.120;37.970;2023-07-13T05:35:13;62.78;;;25.88;;
77866;SDS011;67271;59.120;37.970;2023-07-13T05:37:39;40.63;;;21.83;;
77866;SDS011;67271;59.120;37.970;2023-07-13T05:40:05;49.17;;;23.27;;
77866;SDS011;67271;59.120;37.970;2023-07-13T05:42:31;50.72;;;25.90;;
77866;SDS011;67271;59.120;37.970;2023-07-13T05:44:57;60.47;;;26.15;;
77866;SDS011;67271;59.120;37.970;2023-07-13T05:47:23;38.17;;;19.58;;
77866;SDS011;67271;59.120;37.970;2023-07-13T05:49:49;45.35;;;21.20;;
77866;SDS011;67271;59.120;37.970;2023-07-13T05:52:18;30.88;;;15.27;;
77866;SDS011;67271;59.120;37.970;2023-07-13T05:54:44;25.00;;;14.57;;
77866;SDS011;67271;59.120;37.970;2023-07-13T05:57:10;22.40;;;11.45;;
77866;SDS011;67271;59.120;37.970;2023-07-13T05:59:36;20.00;;;10.95;;
77866;SDS011;67271;59.120;37.970;2023-07-13T06:02:02;21.05;;;9.75;;
77866;SDS011;67271;59.120;37.970;2023-07-13T06:04:28;17.90;;;9.25;;
77866;SDS011;67271;59.120;37.970;2023-07-13T06:06:54;26.27;;;9.30;;
77866;SDS011;67271;59.120;37.970;2023-07-13T06:09:20;23.02;;;8.88;;
77866;SDS011;67271;59.120;37.970;2023-07-13T06:11:46;20.20;;;7.78;;
77866;SDS011;67271;59.120;37.970;2023-07-13T06:14:12;18.42;;;7.50;;
77866;SDS011;67271;59.120;37.970;2023-07-13T06:16:39;17.90;;;7.03;;
77866;SDS011;67271;59.120;37.970;2023-07-13T06:19:06;12.20;;;5.80;;
77866;SDS011;67271;59.120;37.970;2023-07-13T06:21:32;14.35;;;6.55;;
77866;SDS011;67271;59.120;37.970;2023-07-13T06:23:58;13.90;;;5.63;;
77866;SDS011;67271;59.120;37.970;2023-07-13T06:26:24;20.10;;;5.97;;
77866;SDS011;67271;59.120;37.970;2023-07-13T06:28:53;12.35;;;5.63;;
77866;SDS011;67271;59.120;37.970;2023-07-13T06:31:19;10.88;;;5.82;;
77866;SDS011;67271;59.120;37.970;2023-07-13T06:33:45;18.63;;;5.45;;
77866;SDS011;67271;59.120;37.970;2023-07-13T06:36:11;18.27;;;5.80;;
77866;SDS011;67271;59.120;37.970;2023-07-13T06:38:37;13.13;;;5.38;;
77866;SDS011;67271;59.120;37.970;2023-07-13T06:41:05;16.05;;;4.85;;
77866;SDS011;67271;59.120;37.970;2023-07-13T06:43:32;12.35;;;5.22;;
77866;SDS011;67271;59.120;37.970;2023-07-13T06:45:58;20.80;;;5.45;;
77866;SDS011;67271;59.120;37.970;2023-07-13T06:48:25;13.60;;;6.30;;
77866;SDS011;67271;59.120;37.970;2023-07-13T06:50:51;15.80;;;6.10;;
77866;SDS011;67271;59.120;37.970;2023-07-13T06:53:18;10.52;;;6.85;;
77866;SDS011;67271;59.120;37.970;2023-07-13T06:55:45;17.50;;;6.22;;
77866;SDS011;67271;59.120;37.970;2023-07-13T06:58:12;14.48;;;6.72;;
77866;SDS011;67271;59.120;37.970;2023-07-13T07:00:40;10.93;;;5.30;;
77866;SDS011;67271;59.120;37.970;2023-07-13T07:03:06;12.55;;;5.75;;
77866;SDS011;67271;59.120;37.970;2023-07-13T07:05:33;15.05;;;5.45;;
77866;SDS011;67271;59.120;37.970;2023-07-13T07:07:59;15.07;;;5.82;;
77866;SDS011;67271;59.120;37.970;2023-07-13T07:10:25;11.00;;;5.35;;
77866;SDS011;67271;59.120;37.970;2023-07-13T07:12:51;16.23;;;5.82;;
77866;SDS011;67271;59.120;37.970;2023-07-13T07:15:17;10.02;;;4.55;;
77866;SDS011;67271;59.120;37.970;2023-07-13T07:17:44;14.82;;;6.45;;
77866;SDS011;67271;59.120;37.970;2023-07-13T07:20:10;8.27;;;4.47;;
77866;SDS011;67271;59.120;37.970;2023-07-13T07:22:43;7.57;;;3.83;;
77866;SDS011;67271;59.120;37.970;2023-07-13T07:25:09;6.15;;;4.05;;
77866;SDS011;67271;59.120;37.970;2023-07-13T07:27:35;13.00;;;4.70;;
77866;SDS011;67271;59.120;37.970;2023-07-13T07:30:01;18.73;;;6.50;;
77866;SDS011;67271;59.120;37.970;2023-07-13T07:32:28;12.20;;;5.80;;
77866;SDS011;67271;59.120;37.970;2023-07-13T07:34:55;17.77;;;5.80;;
77866;SDS011;67271;59.120;37.970;2023-07-13T07:37:21;11.75;;;5.28;;
77866;SDS011;67271;59.120;37.970;2023-07-13T07:39:48;12.88;;;4.47;;
77866;SDS011;67271;59.120;37.970;2023-07-13T07:42:14;8.25;;;5.03;;
77866;SDS011;67271;59.120;37.970;2023-07-13T07:44:40;8.18;;;4.63;;
77866;SDS011;67271;59.120;37.970;2023-07-13T07:47:06;10.10;;;4.32;;
77866;SDS011;67271;59.120;37.970;2023-07-13T07:49:33;10.57;;;5.05;;
77866;SDS011;67271;59.120;37.970;2023-07-13T07:51:59;16.90;;;5.50;;
77866;SDS011;67271;59.120;37.970;2023-07-13T07:54:25;9.57;;;4.75;;
77866;SDS011;67271;59.120;37.970;2023-07-13T07:56:51;8.07;;;4.10;;
77866;SDS011;67271;59.120;37.970;2023-07-13T07:59:17;16.55;;;4.43;;
77866;SDS011;67271;59.120;37.970;2023-07-13T08:01:43;9.23;;;4.80;;
77866;SDS011;67271;59.120;37.970;2023-07-13T08:04:11;6.00;;;3.72;;
77866;SDS011;67271;59.120;37.970;2023-07-13T08:06:37;8.93;;;3.58;;
77866;SDS011;67271;59.120;37.970;2023-07-13T08:09:03;22.02;;;6.82;;
77866;SDS011;67271;59.120;37.970;2023-07-13T08:11:30;8.20;;;3.30;;
77866;SDS011;67271;59.120;37.970;2023-07-13T08:13:55;14.85;;;4.22;;
77866;SDS011;67271;59.120;37.970;2023-07-13T08:16:22;7.63;;;3.90;;
77866;SDS011;67271;59.120;37.970;2023-07-13T08:18:49;7.65;;;3.72;;
77866;SDS011;67271;59.120;37.970;2023-07-13T08:21:15;9.73;;;4.50;;
77866;SDS011;67271;59.120;37.970;2023-07-13T08:23:41;8.57;;;4.05;;
77866;SDS011;67271;59.120;37.970;2023-07-13T08:26:07;11.48;;;3.67;;
77866;SDS011;67271;59.120;37.970;2023-07-13T08:28:34;8.00;;;3.60;;
77866;SDS011;67271;59.120;37.970;2023-07-13T08:31:03;8.43;;;4.32;;
77866;SDS011;67271;59.120;37.970;2023-07-13T08:33:35;10.10;;;5.10;;
77866;SDS011;67271;59.120;37.970;2023-07-13T08:36:04;13.50;;;5.10;;
77866;SDS011;67271;59.120;37.970;2023-07-13T08:38:30;11.68;;;4.68;;
77866;SDS011;67271;59.120;37.970;2023-07-13T08:40:57;13.60;;;4.32;;
77866;SDS011;67271;59.120;37.970;2023-07-13T08:43:25;9.52;;;5.38;;
77866;SDS011;67271;59.120;37.970;2023-07-13T08:46:13;8.63;;;4.30;;
77866;SDS011;67271;59.120;37.970;2023-07-13T08:53:52;14.48;;;5.28;;
77866;SDS011;67271;59.120;37.970;2023-07-13T08:56:23;10.68;;;5.88;;
77866;SDS011;67271;59.120;37.970;2023-07-13T08:58:56;10.95;;;5.07;;
77866;SDS011;67271;59.120;37.970;2023-07-13T09:04:09;15.90;;;7.20;;
77866;SDS011;67271;59.120;37.970;2023-07-13T09:11:56;17.88;;;6.68;;
77866;SDS011;67271;59.120;37.970;2023-07-13T09:14:41;16.95;;;6.45;;
77866;SDS011;67271;59.120;37.970;2023-07-13T09:17:14;7.47;;;3.70;;
77866;SDS011;67271;59.120;37.970;2023-07-13T09:19:44;10.85;;;4.50;;
77866;SDS011;67271;59.120;37.970;2023-07-13T09:22:16;9.52;;;4.82;;
77866;SDS011;67271;59.120;37.970;2023-07-13T09:24:49;8.88;;;3.78;;
77866;SDS011;67271;59.120;37.970;2023-07-13T09:27:20;11.50;;;4.60;;
77866;SDS011;67271;59.120;37.970;2023-07-13T09:30:04;11.82;;;4.80;;
77866;SDS011;67271;59.120;37.970;2023-07-13T09:32:39;10.23;;;4.55;;
77866;SDS011;67271;59.120;37.970;2023-07-13T09:35:10;9.35;;;3.65;;
77866;SDS011;67271;59.120;37.970;2023-07-13T09:37:37;16.85;;;4.55;;
77866;SDS011;67271;59.120;37.970;2023-07-13T09:40:11;11.45;;;5.25;;
77866;SDS011;67271;59.120;37.970;2023-07-13T09:42:52;7.25;;;4.07;;
77866;SDS011;67271;59.120;37.970;2023-07-13T09:45:29;8.73;;;3.42;;
77866;SDS011;67271;59.120;37.970;2023-07-13T09:48:03;11.68;;;3.60;;
77866;SDS011;67271;59.120;37.970;2023-07-13T09:52:57;5.63;;;2.08;;
77866;SDS011;67271;59.120;37.970;2023-07-13T09:55:26;5.65;;;2.78;;
77866;SDS011;67271;59.120;37.970;2023-07-13T09:57:54;5.43;;;3.05;;
77866;SDS011;67271;59.120;37.970;2023-07-13T10:00:21;5.32;;;2.88;;
77866;SDS011;67271;59.120;37.970;2023-07-13T10:03:01;7.65;;;3.17;;
77866;SDS011;67271;59.120;37.970;2023-07-13T10:05:43;8.65;;;2.80;;
77866;SDS011;67271;59.120;37.970;2023-07-13T10:10:45;6.63;;;3.40;;
77866;SDS011;67271;59.120;37.970;2023-07-13T10:13:35;17.80;;;4.88;;
77866;SDS011;67271;59.120;37.970;2023-07-13T10:16:06;8.30;;;3.78;;
77866;SDS011;67271;59.120;37.970;2023-07-13T10:18:55;5.88;;;3.70;;
77866;SDS011;67271;59.120;37.970;2023-07-13T10:21:21;9.13;;;4.63;;
77866;SDS011;67271;59.120;37.970;2023-07-13T10:23:53;13.98;;;5.95;;
77866;SDS011;67271;59.120;37.970;2023-07-13T10:26:22;19.95;;;5.90;;
77866;SDS011;67271;59.120;37.970;2023-07-13T10:28:53;12.00;;;5.45;;
77866;SDS011;67271;59.120;37.970;2023-07-13T10:31:21;11.80;;;6.15;;
77866;SDS011;67271;59.120;37.970;2023-07-13T10:33:49;12.63;;;6.32;;
77866;SDS011;67271;59.120;37.970;2023-07-13T10:36:28;14.35;;;6.50;;
77866;SDS011;67271;59.120;37.970;2023-07-13T10:39:00;19.63;;;7.72;;
77866;SDS011;67271;59.120;37.970;2023-07-13T10:41:30;17.15;;;7.20;;
77866;SDS011;67271;59.120;37.970;2023-07-13T10:44:02;11.52;;;7.43;;
77866;SDS011;67271;59.120;37.970;2023-07-13T10:46:32;21.55;;;8.90;;
77866;SDS011;67271;59.120;37.970;2023-07-13T10:48:59;22.02;;;8.30;;
77866;SDS011;67271;59.120;37.970;2023-07-13T10:51:29;17.52;;;7.43;;
77866;SDS011;67271;59.120;37.970;2023-07-13T10:56:42;6.65;;;3.72;;
77866;SDS011;67271;59.120;37.970;2023-07-13T11:04:42;5.60;;;2.20;;
77866;SDS011;67271;59.120;37.970;2023-07-13T11:07:17;3.40;;;2.20;;
77866;SDS011;67271;59.120;37.970;2023-07-13T11:09:44;4.63;;;2.35;;
77866;SDS011;67271;59.120;37.970;2023-07-13T11:22:49;25.38;;;9.18;;
77866;SDS011;67271;59.120;37.970;2023-07-13T11:25:33;22.77;;;8.18;;
77866;SDS011;67271;59.120;37.970;2023-07-13T11:28:11;28.38;;;10.52;;
77866;SDS011;67271;59.120;37.970;2023-07-13T11:30:43;31.77;;;10.13;;
77866;SDS011;67271;59.120;37.970;2023-07-13T11:38:36;30.95;;;11.23;;
77866;SDS011;67271;59.120;37.970;2023-07-13T11:41:05;28.17;;;11.45;;
77866;SDS011;67271;59.120;37.970;2023-07-13T11:43:32;21.70;;;11.20;;
77866;SDS011;67271;59.120;37.970;2023-07-13T11:46:11;26.95;;;11.05;;
77866;SDS011;67271;59.120;37.970;2023-07-13T11:48:42;29.25;;;9.38;;
77866;SDS011;67271;59.120;37.970;2023-07-13T11:51:15;22.70;;;9.05;;
77866;SDS011;67271;59.120;37.970;2023-07-13T11:54:06;21.05;;;9.25;;
77866;SDS011;67271;59.120;37.970;2023-07-13T11:56:45;25.73;;;10.90;;
77866;SDS011;67271;59.120;37.970;2023-07-13T11:59:12;30.58;;;11.30;;
77866;SDS011;67271;59.120;37.970;2023-07-13T12:01:48;20.23;;;10.10;;
77866;SDS011;67271;59.120;37.970;2023-07-13T12:04:27;29.13;;;11.93;;
77866;SDS011;67271;59.120;37.970;2023-07-13T12:07:06;24.67;;;11.40;;
77866;SDS011;67271;59.120;37.970;2023-07-13T12:09:34;26.42;;;11.00;;
77866;SDS011;67271;59.120;37.970;2023-07-13T12:12:02;27.38;;;11.65;;
77866;SDS011;67271;59.120;37.970;2023-07-13T12:14:28;27.00;;;11.20;;
77866;SDS011;67271;59.120;37.970;2023-07-13T12:17:04;24.27;;;11.55;;
77866;SDS011;67271;59.120;37.970;2023-07-13T12:19:54;34.38;;;10.65;;
77866;SDS011;67271;59.120;37.970;2023-07-13T12:22:20;21.45;;;10.32;;
77866;SDS011;67271;59.120;37.970;2023-07-13T12:24:48;31.23;;;10.63;;
77866;SDS011;67271;59.120;37.970;2023-07-13T12:27:21;26.27;;;13.43;;
77866;SDS011;67271;59.120;37.970;2023-07-13T12:30:00;35.63;;;11.93;;
77866;SDS011;67271;59.120;37.970;2023-07-13T12:32:30;31.33;;;12.10;;
77866;SDS011;67271;59.120;37.970;2023-07-13T12:35:02;34.08;;;11.23;;
77866;SDS011;67271;59.120;37.970;2023-07-13T12:37:44;27.88;;;10.43;;
77866;SDS011;67271;59.120;37.970;2023-07-13T12:40:15;34.53;;;11.02;;
77866;SDS011;67271;59.120;37.970;2023-07-13T12:42:48;28.38;;;10.90;;
77866;SDS011;67271;59.120;37.970;2023-07-13T12:45:21;23.33;;;9.77;;
77866;SDS011;67271;59.120;37.970;2023-07-13T12:47:53;23.27;;;10.75;;
77866;SDS011;67271;59.120;37.970;2023-07-13T12:50:21;30.95;;;10.70;;
77866;SDS011;67271;59.120;37.970;2023-07-13T12:52:53;35.15;;;10.90;;
77866;SDS011;67271;59.120;37.970;2023-07-13T12:55:23;33.60;;;11.43;;
77866;SDS011;67271;59.120;37.970;2023-07-13T12:57:50;26.85;;;12.77;;
77866;SDS011;67271;59.120;37.970;2023-07-13T13:02:58;27.65;;;11.82;;
77866;SDS011;67271;59.120;37.970;2023-07-13T13:05:29;21.25;;;10.23;;
77866;SDS011;67271;59.120;37.970;2023-07-13T13:07:56;11.27;;;5.72;;
77866;SDS011;67271;59.120;37.970;2023-07-13T13:10:23;4.90;;;2.97;;
77866;SDS011;67271;59.120;37.970;2023-07-13T13:12:49;3.67;;;2.22;;
77866;SDS011;67271;59.120;37.970;2023-07-13T13:15:16;2.88;;;2.15;;
77866;SDS011;67271;59.120;37.970;2023-07-13T13:17:42;3.75;;;2.00;;
77866;SDS011;67271;59.120;37.970;2023-07-13T13:20:20;2.20;;;1.80;;
77866;SDS011;67271;59.120;37.970;2023-07-13T13:22:47;3.53;;;2.00;;
77866;SDS011;67271;59.120;37.970;2023-07-13T13:25:13;2.00;;;1.67;;
77866;SDS011;67271;59.120;37.970;2023-07-13T13:27:41;1.73;;;1.38;;
77866;SDS011;67271;59.120;37.970;2023-07-13T13:30:11;2.25;;;1.60;;
77866;SDS011;67271;59.120;37.970;2023-07-13T13:32:43;2.03;;;1.33;;
77866;SDS011;67271;59.120;37.970;2023-07-13T13:35:16;0.93;;;0.93;;
77866;SDS011;67271;59.120;37.970;2023-07-13T13:37:44;2.42;;;1.60;;
77866;SDS011;67271;59.120;37.970;2023-07-13T13:40:15;2.47;;;1.52;;
77866;SDS011;67271;59.120;37.970;2023-07-13T13:42:46;3.92;;;1.48;;
77866;SDS011;67271;59.120;37.970;2023-07-13T13:45:21;2.42;;;1.65;;
77866;SDS011;67271;59.120;37.970;2023-07-13T13:47:47;2.38;;;1.60;;
77866;SDS011;67271;59.120;37.970;2023-07-13T13:52:45;2.13;;;1.50;;
77866;SDS011;67271;59.120;37.970;2023-07-13T13:55:18;3.00;;;1.80;;
77866;SDS011;67271;59.120;37.970;2023-07-13T13:57:45;4.38;;;1.58;;
77866;SDS011;67271;59.120;37.970;2023-07-13T14:00:12;4.05;;;1.70;;
77866;SDS011;67271;59.120;37.970;2023-07-13T14:02:46;1.98;;;1.63;;
77866;SDS011;67271;59.120;37.970;2023-07-13T14:05:18;3.53;;;1.70;;
77866;SDS011;67271;59.120;37.970;2023-07-13T14:07:48;4.28;;;1.50;;
77866;SDS011;67271;59.120;37.970;2023-07-13T14:10:16;6.93;;;1.52;;
77866;SDS011;67271;59.120;37.970;2023-07-13T14:12:44;2.50;;;1.60;;
77866;SDS011;67271;59.120;37.970;2023-07-13T14:15:25;2.38;;;1.60;;
77866;SDS011;67271;59.120;37.970;2023-07-13T14:17:53;3.08;;;1.80;;
77866;SDS011;67271;59.120;37.970;2023-07-13T14:20:21;3.33;;;2.20;;
77866;SDS011;67271;59.120;37.970;2023-07-13T14:22:49;3.15;;;2.20;;
77866;SDS011;67271;59.120;37.970;2023-07-13T14:25:18;2.63;;;1.70;;
77866;SDS011;67271;59.120;37.970;2023-07-13T14:27:45;3.35;;;1.98;;
77866;SDS011;67271;59.120;37.970;2023-07-13T14:30:15;4.75;;;2.15;;
77866;SDS011;67271;59.120;37.970;2023-07-13T14:32:42;1.90;;;1.67;;
77866;SDS011;67271;59.120;37.970;2023-07-13T14:35:13;5.20;;;2.10;;
77866;SDS011;67271;59.120;37.970;2023-07-13T14:37:39;3.35;;;2.00;;
77866;SDS011;67271;59.120;37.970;2023-07-13T14:40:18;3.45;;;1.55;;
77866;SDS011;67271;59.120;37.970;2023-07-13T14:42:50;4.28;;;1.92;;
77866;SDS011;67271;59.120;37.970;2023-07-13T14:45:17;2.03;;;1.40;;
77866;SDS011;67271;59.120;37.970;2023-07-13T14:47:44;1.67;;;1.50;;
77866;SDS011;67271;59.120;37.970;2023-07-13T14:50:18;1.75;;;1.63;;
77866;SDS011;67271;59.120;37.970;2023-07-13T14:52:53;2.72;;;1.90;;
77866;SDS011;67271;59.120;37.970;2023-07-13T14:55:19;2.78;;;1.98;;
77866;SDS011;67271;59.120;37.970;2023-07-13T14:57:46;2.70;;;2.10;;
77866;SDS011;67271;59.120;37.970;2023-07-13T15:00:19;3.63;;;2.38;;
77866;SDS011;67271;59.120;37.970;2023-07-13T15:02:53;4.13;;;2.25;;
77866;SDS011;67271;59.120;37.970;2023-07-13T15:05:23;2.15;;;1.90;;
77866;SDS011;67271;59.120;37.970;2023-07-13T15:12:46;2.85;;;1.70;;
77866;SDS011;67271;59.120;37.970;2023-07-13T15:15:12;4.35;;;2.22;;
77866;SDS011;67271;59.120;37.970;2023-07-13T15:17:40;4.65;;;1.83;;
77866;SDS011;67271;59.120;37.970;2023-07-13T15:20:19;2.75;;;1.80;;
77866;SDS011;67271;59.120;37.970;2023-07-13T15:22:56;2.30;;;1.77;;
77866;SDS011;67271;59.120;37.970;2023-07-13T15:25:23;1.83;;;1.60;;
77866;SDS011;67271;59.120;37.970;2023-07-13T15:27:51;2.88;;;1.55;;
77866;SDS011;67271;59.120;37.970;2023-07-13T15:30:18;2.97;;;1.70;;
77866;SDS011;67271;59.120;37.970;2023-07-13T15:32:44;2.30;;;1.67;;